RJDC

Yamaguchi Ube Airport

Airport
ICAO code
RJDC
IATA Code
UBJ
Summary
ICAO Region
APAC
ICAO Territory
Location

Ube, Chūgoku

Serving
Ube
Elevation
15 ft
Coordinates
33° 55' 59" N , 131° 16' 30" E
KCC
Metar
RJDC 282215Z 05006KT 9999 -RA FEW025 SCT050 BKN060 07/04 Q1023 RMK 1CU025 3SC050 6SC060 A3021

Domestic airport serving city of Ube, Japan.

Climatology

Humid “subtropical” climate (Köppen climate classification Cfa) - characterized by hot, humid summers and cool winters. Significant amounts of precipitation occur in all seasons in most areas. Winter rainfall (and sometimes snowfall) is associated with large storms that the westerlies steer from west to east. Most summer rainfall occurs during thunderstorms.

Runways

Designator Length Width Surface Rops
7/25 2499 46 ASP Yes/Yes

Airport map

Aerial View

SKYbrary Partners:

Safety knowledge contributed by: